sensor_id;sensor_type;location;lat;lon;timestamp;temperature;humidity
5334;DHT22;2689;50.954;7.116;2022-08-19T00:00:09;18.60;99.90
5334;DHT22;2689;50.954;7.116;2022-08-19T00:02:36;18.50;99.90
5334;DHT22;2689;50.954;7.116;2022-08-19T00:05:04;18.50;99.90
5334;DHT22;2689;50.954;7.116;2022-08-19T00:07:31;18.50;99.90
5334;DHT22;2689;50.954;7.116;2022-08-19T00:09:58;18.40;99.90
5334;DHT22;2689;50.954;7.116;2022-08-19T00:12:24;18.40;99.90
5334;DHT22;2689;50.954;7.116;2022-08-19T00:14:53;18.40;99.90
5334;DHT22;2689;50.954;7.116;2022-08-19T00:17:21;18.40;99.90
5334;DHT22;2689;50.954;7.116;2022-08-19T00:19:47;18.30;99.90
5334;DHT22;2689;50.954;7.116;2022-08-19T00:22:14;18.30;99.90
5334;DHT22;2689;50.954;7.116;2022-08-19T00:24:43;18.30;99.90
5334;DHT22;2689;50.954;7.116;2022-08-19T00:27:11;18.20;99.90
5334;DHT22;2689;50.954;7.116;2022-08-19T00:29:37;18.20;99.90
5334;DHT22;2689;50.954;7.116;2022-08-19T00:32:06;18.10;99.90
5334;DHT22;2689;50.954;7.116;2022-08-19T00:34:32;18.10;99.90
5334;DHT22;2689;50.954;7.116;2022-08-19T00:36:59;18.10;99.90
5334;DHT22;2689;50.954;7.116;2022-08-19T00:39:26;18.00;99.90
5334;DHT22;2689;50.954;7.116;2022-08-19T00:41:52;18.00;99.90
5334;DHT22;2689;50.954;7.116;2022-08-19T00:44:21;18.00;99.90
5334;DHT22;2689;50.954;7.116;2022-08-19T00:46:51;17.90;99.90
5334;DHT22;2689;50.954;7.116;2022-08-19T00:49:22;17.90;99.90
5334;DHT22;2689;50.954;7.116;2022-08-19T00:51:52;17.80;99.90
5334;DHT22;2689;50.954;7.116;2022-08-19T00:54:19;17.80;99.90
5334;DHT22;2689;50.954;7.116;2022-08-19T00:57:03;17.70;99.90
5334;DHT22;2689;50.954;7.116;2022-08-19T00:59:31;17.70;99.90
5334;DHT22;2689;50.954;7.116;2022-08-19T01:02:01;17.70;99.90
5334;DHT22;2689;50.954;7.116;2022-08-19T01:04:29;17.60;99.90
5334;DHT22;2689;50.954;7.116;2022-08-19T01:06:56;17.60;99.90
5334;DHT22;2689;50.954;7.116;2022-08-19T01:09:23;17.60;99.90
5334;DHT22;2689;50.954;7.116;2022-08-19T01:11:51;17.60;99.90
5334;DHT22;2689;50.954;7.116;2022-08-19T01:14:18;17.50;99.90
5334;DHT22;2689;50.954;7.116;2022-08-19T01:16:46;17.50;99.90
5334;DHT22;2689;50.954;7.116;2022-08-19T01:19:24;17.50;99.90
5334;DHT22;2689;50.954;7.116;2022-08-19T01:21:57;17.50;99.90
5334;DHT22;2689;50.954;7.116;2022-08-19T01:24:28;17.50;99.90
5334;DHT22;2689;50.954;7.116;2022-08-19T01:26:57;17.50;99.90
5334;DHT22;2689;50.954;7.116;2022-08-19T01:29:24;17.40;99.90
5334;DHT22;2689;50.954;7.116;2022-08-19T01:31:51;17.40;99.90
5334;DHT22;2689;50.954;7.116;2022-08-19T01:34:18;17.40;99.90
5334;DHT22;2689;50.954;7.116;2022-08-19T01:36:46;17.30;99.90
5334;DHT22;2689;50.954;7.116;2022-08-19T01:39:16;17.30;99.90
5334;DHT22;2689;50.954;7.116;2022-08-19T01:41:46;17.30;99.90
5334;DHT22;2689;50.954;7.116;2022-08-19T01:44:13;17.30;99.90
5334;DHT22;2689;50.954;7.116;2022-08-19T01:46:42;17.30;99.90
5334;DHT22;2689;50.954;7.116;2022-08-19T01:49:09;17.30;99.90
5334;DHT22;2689;50.954;7.116;2022-08-19T01:51:37;17.30;99.90
5334;DHT22;2689;50.954;7.116;2022-08-19T01:54:03;17.30;99.90
5334;DHT22;2689;50.954;7.116;2022-08-19T01:56:30;17.30;99.90
5334;DHT22;2689;50.954;7.116;2022-08-19T01:59:02;17.30;99.90
5334;DHT22;2689;50.954;7.116;2022-08-19T02:01:30;17.30;99.90
5334;DHT22;2689;50.954;7.116;2022-08-19T02:03:57;17.20;99.90
5334;DHT22;2689;50.954;7.116;2022-08-19T02:06:26;17.20;99.90
5334;DHT22;2689;50.954;7.116;2022-08-19T02:08:53;17.20;99.90
5334;DHT22;2689;50.954;7.116;2022-08-19T02:11:23;17.20;99.90
5334;DHT22;2689;50.954;7.116;2022-08-19T02:13:52;17.30;99.90
5334;DHT22;2689;50.954;7.116;2022-08-19T02:16:20;17.20;99.90
5334;DHT22;2689;50.954;7.116;2022-08-19T02:18:47;17.20;99.90
5334;DHT22;2689;50.954;7.116;2022-08-19T02:21:14;17.20;99.90
5334;DHT22;2689;50.954;7.116;2022-08-19T02:23:41;17.20;99.90
5334;DHT22;2689;50.954;7.116;2022-08-19T02:26:08;17.10;99.90
5334;DHT22;2689;50.954;7.116;2022-08-19T02:28:35;17.20;99.90
5334;DHT22;2689;50.954;7.116;2022-08-19T02:31:03;17.10;99.90
5334;DHT22;2689;50.954;7.116;2022-08-19T02:33:31;17.20;99.90
5334;DHT22;2689;50.954;7.116;2022-08-19T02:35:58;17.20;99.90
5334;DHT22;2689;50.954;7.116;2022-08-19T02:38:24;17.10;99.90
5334;DHT22;2689;50.954;7.116;2022-08-19T02:40:51;17.20;99.90
5334;DHT22;2689;50.954;7.116;2022-08-19T02:43:19;17.10;99.90
5334;DHT22;2689;50.954;7.116;2022-08-19T02:45:47;17.10;99.90
5334;DHT22;2689;50.954;7.116;2022-08-19T02:48:14;17.20;99.90
5334;DHT22;2689;50.954;7.116;2022-08-19T02:50:44;17.10;99.90
5334;DHT22;2689;50.954;7.116;2022-08-19T02:53:11;17.10;99.90
5334;DHT22;2689;50.954;7.116;2022-08-19T02:55:43;17.10;99.90
5334;DHT22;2689;50.954;7.116;2022-08-19T02:58:10;17.20;99.90
5334;DHT22;2689;50.954;7.116;2022-08-19T03:00:41;17.20;99.90
5334;DHT22;2689;50.954;7.116;2022-08-19T03:03:09;17.20;99.90
5334;DHT22;2689;50.954;7.116;2022-08-19T03:05:36;17.20;99.90
5334;DHT22;2689;50.954;7.116;2022-08-19T03:08:04;17.10;99.90
5334;DHT22;2689;50.954;7.116;2022-08-19T03:10:31;17.10;99.90
5334;DHT22;2689;50.954;7.116;2022-08-19T03:12:58;17.00;99.90
5334;DHT22;2689;50.954;7.116;2022-08-19T03:15:25;17.00;99.90
5334;DHT22;2689;50.954;7.116;2022-08-19T03:17:52;17.00;99.90
5334;DHT22;2689;50.954;7.116;2022-08-19T03:20:19;17.00;99.90
5334;DHT22;2689;50.954;7.116;2022-08-19T03:22:46;17.00;99.90
5334;DHT22;2689;50.954;7.116;2022-08-19T03:25:14;17.00;99.90
5334;DHT22;2689;50.954;7.116;2022-08-19T03:27:42;17.00;99.90
5334;DHT22;2689;50.954;7.116;2022-08-19T03:30:10;16.90;99.90
5334;DHT22;2689;50.954;7.116;2022-08-19T03:32:37;16.90;99.90
5334;DHT22;2689;50.954;7.116;2022-08-19T03:35:04;16.90;99.90
5334;DHT22;2689;50.954;7.116;2022-08-19T03:37:31;16.90;99.90
5334;DHT22;2689;50.954;7.116;2022-08-19T03:39:58;16.80;99.90
5334;DHT22;2689;50.954;7.116;2022-08-19T03:42:26;16.80;99.90
5334;DHT22;2689;50.954;7.116;2022-08-19T03:44:53;16.80;99.90
5334;DHT22;2689;50.954;7.116;2022-08-19T03:47:20;16.80;99.90
5334;DHT22;2689;50.954;7.116;2022-08-19T03:49:46;16.80;99.90
5334;DHT22;2689;50.954;7.116;2022-08-19T03:52:13;16.80;99.90
5334;DHT22;2689;50.954;7.116;2022-08-19T03:54:40;16.80;99.90
5334;DHT22;2689;50.954;7.116;2022-08-19T03:57:07;16.80;99.90
5334;DHT22;2689;50.954;7.116;2022-08-19T03:59:36;16.70;99.90
5334;DHT22;2689;50.954;7.116;2022-08-19T04:02:07;16.80;99.90
5334;DHT22;2689;50.954;7.116;2022-08-19T04:04:35;16.70;99.90
5334;DHT22;2689;50.954;7.116;2022-08-19T04:07:02;16.70;99.90
5334;DHT22;2689;50.954;7.116;2022-08-19T04:09:29;16.70;99.90
5334;DHT22;2689;50.954;7.116;2022-08-19T04:11:57;16.70;99.90
5334;DHT22;2689;50.954;7.116;2022-08-19T04:14:26;16.70;99.90
5334;DHT22;2689;50.954;7.116;2022-08-19T04:16:55;16.70;99.90
5334;DHT22;2689;50.954;7.116;2022-08-19T04:19:22;16.70;99.90
5334;DHT22;2689;50.954;7.116;2022-08-19T04:21:51;16.60;99.90
5334;DHT22;2689;50.954;7.116;2022-08-19T04:24:19;16.60;99.90
5334;DHT22;2689;50.954;7.116;2022-08-19T04:26:46;16.60;99.90
5334;DHT22;2689;50.954;7.116;2022-08-19T04:29:17;16.70;99.90
5334;DHT22;2689;50.954;7.116;2022-08-19T04:31:44;16.70;99.90
5334;DHT22;2689;50.954;7.116;2022-08-19T04:34:14;16.70;99.90
5334;DHT22;2689;50.954;7.116;2022-08-19T04:36:43;16.80;99.90
5334;DHT22;2689;50.954;7.116;2022-08-19T04:39:13;16.80;99.90
5334;DHT22;2689;50.954;7.116;2022-08-19T04:41:40;16.90;99.90
5334;DHT22;2689;50.954;7.116;2022-08-19T04:44:25;16.90;99.90
5334;DHT22;2689;50.954;7.116;2022-08-19T04:46:56;17.00;99.90
5334;DHT22;2689;50.954;7.116;2022-08-19T04:49:24;17.00;99.90
5334;DHT22;2689;50.954;7.116;2022-08-19T04:51:53;17.00;99.90
5334;DHT22;2689;50.954;7.116;2022-08-19T04:54:21;17.00;99.90
5334;DHT22;2689;50.954;7.116;2022-08-19T04:56:48;17.10;99.90
5334;DHT22;2689;50.954;7.116;2022-08-19T04:59:16;17.10;99.90
5334;DHT22;2689;50.954;7.116;2022-08-19T05:01:44;17.10;99.90
5334;DHT22;2689;50.954;7.116;2022-08-19T05:04:16;17.10;99.90
5334;DHT22;2689;50.954;7.116;2022-08-19T05:06:45;17.10;99.90
5334;DHT22;2689;50.954;7.116;2022-08-19T05:09:13;17.10;99.90
5334;DHT22;2689;50.954;7.116;2022-08-19T05:11:40;17.10;99.90
5334;DHT22;2689;50.954;7.116;2022-08-19T05:14:08;17.10;99.90
5334;DHT22;2689;50.954;7.116;2022-08-19T05:16:35;17.10;99.90
5334;DHT22;2689;50.954;7.116;2022-08-19T05:19:02;17.10;99.90
5334;DHT22;2689;50.954;7.116;2022-08-19T05:21:47;17.10;99.90
5334;DHT22;2689;50.954;7.116;2022-08-19T05:24:31;17.10;99.90
5334;DHT22;2689;50.954;7.116;2022-08-19T05:27:00;17.10;99.90
5334;DHT22;2689;50.954;7.116;2022-08-19T05:29:29;17.10;99.90
5334;DHT22;2689;50.954;7.116;2022-08-19T05:31:57;17.20;99.90
5334;DHT22;2689;50.954;7.116;2022-08-19T05:34:25;17.20;99.90
5334;DHT22;2689;50.954;7.116;2022-08-19T05:36:55;17.20;99.90
5334;DHT22;2689;50.954;7.116;2022-08-19T05:39:24;17.20;99.90
5334;DHT22;2689;50.954;7.116;2022-08-19T05:41:58;17.30;99.90
5334;DHT22;2689;50.954;7.116;2022-08-19T05:44:25;17.30;99.90
5334;DHT22;2689;50.954;7.116;2022-08-19T05:46:52;17.50;99.90
5334;DHT22;2689;50.954;7.116;2022-08-19T05:49:22;17.50;99.90
5334;DHT22;2689;50.954;7.116;2022-08-19T05:51:49;17.50;99.90
5334;DHT22;2689;50.954;7.116;2022-08-19T05:54:17;17.60;99.90
5334;DHT22;2689;50.954;7.116;2022-08-19T05:56:44;17.60;99.90
5334;DHT22;2689;50.954;7.116;2022-08-19T05:59:14;17.70;99.90
5334;DHT22;2689;50.954;7.116;2022-08-19T06:01:44;17.70;99.90
5334;DHT22;2689;50.954;7.116;2022-08-19T06:04:11;17.80;99.90
5334;DHT22;2689;50.954;7.116;2022-08-19T06:06:39;17.80;99.90
5334;DHT22;2689;50.954;7.116;2022-08-19T06:09:07;17.90;99.90
5334;DHT22;2689;50.954;7.116;2022-08-19T06:11:39;18.00;99.90
5334;DHT22;2689;50.954;7.116;2022-08-19T06:14:09;18.00;99.90
5334;DHT22;2689;50.954;7.116;2022-08-19T06:16:37;18.10;99.90
5334;DHT22;2689;50.954;7.116;2022-08-19T06:19:06;18.20;99.90
5334;DHT22;2689;50.954;7.116;2022-08-19T06:21:34;18.30;99.90
5334;DHT22;2689;50.954;7.116;2022-08-19T06:24:03;18.50;99.90
5334;DHT22;2689;50.954;7.116;2022-08-19T06:26:30;18.60;99.90
5334;DHT22;2689;50.954;7.116;2022-08-19T06:28:58;18.70;99.90
5334;DHT22;2689;50.954;7.116;2022-08-19T06:31:27;18.70;99.90
5334;DHT22;2689;50.954;7.116;2022-08-19T06:33:54;18.90;99.90
5334;DHT22;2689;50.954;7.116;2022-08-19T06:36:23;19.00;99.90
5334;DHT22;2689;50.954;7.116;2022-08-19T06:38:52;19.10;99.90
5334;DHT22;2689;50.954;7.116;2022-08-19T06:41:20;19.20;99.90
5334;DHT22;2689;50.954;7.116;2022-08-19T06:43:46;19.30;99.90
5334;DHT22;2689;50.954;7.116;2022-08-19T06:46:16;19.30;99.90
5334;DHT22;2689;50.954;7.116;2022-08-19T06:48:44;19.40;99.90
5334;DHT22;2689;50.954;7.116;2022-08-19T06:51:12;19.50;99.90
5334;DHT22;2689;50.954;7.116;2022-08-19T06:53:40;19.60;99.90
5334;DHT22;2689;50.954;7.116;2022-08-19T06:56:13;19.70;99.90
5334;DHT22;2689;50.954;7.116;2022-08-19T06:58:40;19.90;99.90
5334;DHT22;2689;50.954;7.116;2022-08-19T07:01:07;20.10;99.90
5334;DHT22;2689;50.954;7.116;2022-08-19T07:03:36;20.20;99.90
5334;DHT22;2689;50.954;7.116;2022-08-19T07:06:04;20.40;99.90
5334;DHT22;2689;50.954;7.116;2022-08-19T07:08:32;20.60;99.90
5334;DHT22;2689;50.954;7.116;2022-08-19T07:11:02;20.80;99.90
5334;DHT22;2689;50.954;7.116;2022-08-19T07:13:28;20.90;99.90
5334;DHT22;2689;50.954;7.116;2022-08-19T07:16:03;21.10;99.90
5334;DHT22;2689;50.954;7.116;2022-08-19T07:18:29;21.40;99.90
5334;DHT22;2689;50.954;7.116;2022-08-19T07:21:04;21.60;99.90
5334;DHT22;2689;50.954;7.116;2022-08-19T07:23:31;21.70;99.90
5334;DHT22;2689;50.954;7.116;2022-08-19T07:25:58;21.70;99.90
5334;DHT22;2689;50.954;7.116;2022-08-19T07:28:25;21.90;99.90
5334;DHT22;2689;50.954;7.116;2022-08-19T07:30:52;22.10;99.90
5334;DHT22;2689;50.954;7.116;2022-08-19T07:33:18;22.10;99.90
5334;DHT22;2689;50.954;7.116;2022-08-19T07:35:45;22.30;99.90
5334;DHT22;2689;50.954;7.116;2022-08-19T07:38:13;22.40;99.90
5334;DHT22;2689;50.954;7.116;2022-08-19T07:40:41;22.50;99.90
5334;DHT22;2689;50.954;7.116;2022-08-19T07:43:09;22.60;99.90
5334;DHT22;2689;50.954;7.116;2022-08-19T07:45:35;22.60;99.90
5334;DHT22;2689;50.954;7.116;2022-08-19T07:48:02;22.80;99.90
5334;DHT22;2689;50.954;7.116;2022-08-19T07:50:29;22.90;99.90
5334;DHT22;2689;50.954;7.116;2022-08-19T07:52:56;23.10;99.90
5334;DHT22;2689;50.954;7.116;2022-08-19T07:55:25;23.20;99.90
5334;DHT22;2689;50.954;7.116;2022-08-19T07:57:52;23.30;99.90
5334;DHT22;2689;50.954;7.116;2022-08-19T08:00:19;23.30;99.90
5334;DHT22;2689;50.954;7.116;2022-08-19T08:02:46;23.30;99.90
5334;DHT22;2689;50.954;7.116;2022-08-19T08:05:13;23.20;99.90
5334;DHT22;2689;50.954;7.116;2022-08-19T08:07:57;23.00;99.90
5334;DHT22;2689;50.954;7.116;2022-08-19T08:10:43;23.00;99.90
5334;DHT22;2689;50.954;7.116;2022-08-19T08:13:10;23.00;99.90
5334;DHT22;2689;50.954;7.116;2022-08-19T08:15:37;23.00;99.90
5334;DHT22;2689;50.954;7.116;2022-08-19T08:18:04;23.00;99.90
5334;DHT22;2689;50.954;7.116;2022-08-19T08:20:31;23.00;99.90
5334;DHT22;2689;50.954;7.116;2022-08-19T08:22:58;23.00;99.90
5334;DHT22;2689;50.954;7.116;2022-08-19T08:26:03;23.10;99.90
5334;DHT22;2689;50.954;7.116;2022-08-19T08:28:30;23.50;99.90
5334;DHT22;2689;50.954;7.116;2022-08-19T08:30:58;23.60;99.10
5334;DHT22;2689;50.954;7.116;2022-08-19T08:33:27;23.80;98.80
5334;DHT22;2689;50.954;7.116;2022-08-19T08:35:55;24.20;97.70
5334;DHT22;2689;50.954;7.116;2022-08-19T08:38:22;24.20;96.10
5334;DHT22;2689;50.954;7.116;2022-08-19T08:40:52;24.20;96.00
5334;DHT22;2689;50.954;7.116;2022-08-19T08:43:27;24.20;96.00
5334;DHT22;2689;50.954;7.116;2022-08-19T08:46:00;24.50;95.20
5334;DHT22;2689;50.954;7.116;2022-08-19T08:48:35;24.80;95.00
5334;DHT22;2689;50.954;7.116;2022-08-19T08:51:05;25.00;94.40
5334;DHT22;2689;50.954;7.116;2022-08-19T08:53:34;25.70;93.40
5334;DHT22;2689;50.954;7.116;2022-08-19T08:56:03;26.40;90.90
5334;DHT22;2689;50.954;7.116;2022-08-19T08:58:39;27.00;90.10
5334;DHT22;2689;50.954;7.116;2022-08-19T09:01:10;27.70;86.50
5334;DHT22;2689;50.954;7.116;2022-08-19T09:03:39;28.70;82.10
5334;DHT22;2689;50.954;7.116;2022-08-19T09:06:10;29.40;78.70
5334;DHT22;2689;50.954;7.116;2022-08-19T09:08:47;30.40;73.40
5334;DHT22;2689;50.954;7.116;2022-08-19T09:11:19;31.30;70.40
5334;DHT22;2689;50.954;7.116;2022-08-19T09:14:01;32.10;67.20
5334;DHT22;2689;50.954;7.116;2022-08-19T09:16:30;32.20;63.50
5334;DHT22;2689;50.954;7.116;2022-08-19T09:19:01;32.00;62.50
5334;DHT22;2689;50.954;7.116;2022-08-19T09:21:28;32.00;62.50
5334;DHT22;2689;50.954;7.116;2022-08-19T09:23:55;31.60;62.30
5334;DHT22;2689;50.954;7.116;2022-08-19T09:26:23;30.50;63.50
5334;DHT22;2689;50.954;7.116;2022-08-19T09:28:53;30.40;64.60
5334;DHT22;2689;50.954;7.116;2022-08-19T09:31:23;30.60;64.60
5334;DHT22;2689;50.954;7.116;2022-08-19T09:33:51;30.70;64.50
5334;DHT22;2689;50.954;7.116;2022-08-19T09:36:23;30.90;64.10
5334;DHT22;2689;50.954;7.116;2022-08-19T09:38:51;31.50;63.50
5334;DHT22;2689;50.954;7.116;2022-08-19T09:41:21;32.10;59.80
5334;DHT22;2689;50.954;7.116;2022-08-19T09:43:50;33.00;60.60
5334;DHT22;2689;50.954;7.116;2022-08-19T09:46:20;34.30;56.00
5334;DHT22;2689;50.954;7.116;2022-08-19T09:48:47;34.10;55.00
5334;DHT22;2689;50.954;7.116;2022-08-19T09:51:19;32.80;55.60
5334;DHT22;2689;50.954;7.116;2022-08-19T09:53:47;31.70;58.50
5334;DHT22;2689;50.954;7.116;2022-08-19T09:56:16;32.00;59.90
5334;DHT22;2689;50.954;7.116;2022-08-19T09:58:44;32.40;57.90
5334;DHT22;2689;50.954;7.116;2022-08-19T10:01:16;32.70;57.70
5334;DHT22;2689;50.954;7.116;2022-08-19T10:03:48;31.80;59.20
5334;DHT22;2689;50.954;7.116;2022-08-19T10:06:16;31.10;59.90
5334;DHT22;2689;50.954;7.116;2022-08-19T10:08:45;29.50;64.20
5334;DHT22;2689;50.954;7.116;2022-08-19T10:11:12;28.80;68.30
5334;DHT22;2689;50.954;7.116;2022-08-19T10:13:42;28.50;68.60
5334;DHT22;2689;50.954;7.116;2022-08-19T10:16:10;28.40;69.20
5334;DHT22;2689;50.954;7.116;2022-08-19T10:18:38;29.40;69.40
5334;DHT22;2689;50.954;7.116;2022-08-19T10:21:10;31.00;63.90
5334;DHT22;2689;50.954;7.116;2022-08-19T10:23:38;30.80;61.80
5334;DHT22;2689;50.954;7.116;2022-08-19T10:26:06;31.10;62.80
5334;DHT22;2689;50.954;7.116;2022-08-19T10:28:34;31.30;60.50
5334;DHT22;2689;50.954;7.116;2022-08-19T10:31:06;31.10;59.00
5334;DHT22;2689;50.954;7.116;2022-08-19T10:33:34;31.20;59.20
5334;DHT22;2689;50.954;7.116;2022-08-19T10:36:02;31.30;58.20
5334;DHT22;2689;50.954;7.116;2022-08-19T10:38:30;31.20;58.50
5334;DHT22;2689;50.954;7.116;2022-08-19T10:40:57;30.40;58.30
5334;DHT22;2689;50.954;7.116;2022-08-19T10:43:23;30.30;59.40
5334;DHT22;2689;50.954;7.116;2022-08-19T10:45:54;30.60;59.60
5334;DHT22;2689;50.954;7.116;2022-08-19T10:48:24;31.30;57.80
5334;DHT22;2689;50.954;7.116;2022-08-19T10:50:51;31.40;56.40
5334;DHT22;2689;50.954;7.116;2022-08-19T10:53:36;31.10;57.50
5334;DHT22;2689;50.954;7.116;2022-08-19T10:56:03;30.30;57.90
5334;DHT22;2689;50.954;7.116;2022-08-19T10:58:46;30.50;59.60
5334;DHT22;2689;50.954;7.116;2022-08-19T11:01:14;32.10;57.10
5334;DHT22;2689;50.954;7.116;2022-08-19T11:03:41;32.70;53.90
5334;DHT22;2689;50.954;7.116;2022-08-19T11:06:08;32.40;53.50
5334;DHT22;2689;50.954;7.116;2022-08-19T11:08:37;31.70;53.80
5334;DHT22;2689;50.954;7.116;2022-08-19T11:11:05;30.60;55.90
5334;DHT22;2689;50.954;7.116;2022-08-19T11:13:34;30.70;57.90
5334;DHT22;2689;50.954;7.116;2022-08-19T11:16:04;31.90;55.30
5334;DHT22;2689;50.954;7.116;2022-08-19T11:18:33;33.00;54.30
5334;DHT22;2689;50.954;7.116;2022-08-19T11:21:13;34.20;50.30
5334;DHT22;2689;50.954;7.116;2022-08-19T11:23:44;34.00;49.70
5334;DHT22;2689;50.954;7.116;2022-08-19T11:26:12;33.30;50.30
5334;DHT22;2689;50.954;7.116;2022-08-19T11:28:39;32.40;51.60
5334;DHT22;2689;50.954;7.116;2022-08-19T11:31:10;31.70;53.20
5334;DHT22;2689;50.954;7.116;2022-08-19T11:33:37;31.30;54.30
5334;DHT22;2689;50.954;7.116;2022-08-19T11:36:04;31.60;55.00
5334;DHT22;2689;50.954;7.116;2022-08-19T11:38:30;32.20;53.30
5334;DHT22;2689;50.954;7.116;2022-08-19T11:41:01;32.50;52.30
5334;DHT22;2689;50.954;7.116;2022-08-19T11:43:28;32.00;52.50
5334;DHT22;2689;50.954;7.116;2022-08-19T11:45:56;32.50;54.00
5334;DHT22;2689;50.954;7.116;2022-08-19T11:48:24;33.20;51.90
5334;DHT22;2689;50.954;7.116;2022-08-19T11:50:52;33.80;51.20
5334;DHT22;2689;50.954;7.116;2022-08-19T11:53:21;33.10;50.50
5334;DHT22;2689;50.954;7.116;2022-08-19T11:55:48;32.50;51.50
5334;DHT22;2689;50.954;7.116;2022-08-19T11:58:17;31.60;53.00
5334;DHT22;2689;50.954;7.116;2022-08-19T12:00:44;30.50;53.60
5334;DHT22;2689;50.954;7.116;2022-08-19T12:03:12;30.00;55.40
5334;DHT22;2689;50.954;7.116;2022-08-19T12:05:40;30.30;55.50
5334;DHT22;2689;50.954;7.116;2022-08-19T12:08:07;31.20;54.50
5334;DHT22;2689;50.954;7.116;2022-08-19T12:10:34;31.60;51.20
5334;DHT22;2689;50.954;7.116;2022-08-19T12:13:02;32.50;51.10
5334;DHT22;2689;50.954;7.116;2022-08-19T12:15:30;32.90;48.70
5334;DHT22;2689;50.954;7.116;2022-08-19T12:18:01;32.50;49.60
5334;DHT22;2689;50.954;7.116;2022-08-19T12:20:27;31.50;50.60
5334;DHT22;2689;50.954;7.116;2022-08-19T12:22:54;30.80;53.10
5334;DHT22;2689;50.954;7.116;2022-08-19T12:25:21;31.20;53.30
5334;DHT22;2689;50.954;7.116;2022-08-19T12:27:48;31.60;52.70
5334;DHT22;2689;50.954;7.116;2022-08-19T12:30:15;31.30;52.20
5334;DHT22;2689;50.954;7.116;2022-08-19T12:32:43;30.70;53.10
5334;DHT22;2689;50.954;7.116;2022-08-19T12:35:10;31.10;53.60
5334;DHT22;2689;50.954;7.116;2022-08-19T12:37:38;31.30;51.30
5334;DHT22;2689;50.954;7.116;2022-08-19T12:40:10;31.20;50.80
5334;DHT22;2689;50.954;7.116;2022-08-19T12:42:38;31.30;50.10
5334;DHT22;2689;50.954;7.116;2022-08-19T12:45:08;31.40;50.30
5334;DHT22;2689;50.954;7.116;2022-08-19T12:47:35;31.70;49.70
5334;DHT22;2689;50.954;7.116;2022-08-19T12:50:04;31.70;49.70
5334;DHT22;2689;50.954;7.116;2022-08-19T12:52:35;31.70;49.30
5334;DHT22;2689;50.954;7.116;2022-08-19T12:55:03;31.90;48.90
5334;DHT22;2689;50.954;7.116;2022-08-19T12:57:31;31.90;48.20
5334;DHT22;2689;50.954;7.116;2022-08-19T12:59:59;32.20;48.30
5334;DHT22;2689;50.954;7.116;2022-08-19T13:02:26;32.20;48.20
5334;DHT22;2689;50.954;7.116;2022-08-19T13:04:53;32.40;47.60
5334;DHT22;2689;50.954;7.116;2022-08-19T13:07:21;32.00;47.80
5334;DHT22;2689;50.954;7.116;2022-08-19T13:09:51;32.20;48.10
5334;DHT22;2689;50.954;7.116;2022-08-19T13:12:18;32.10;49.00
5334;DHT22;2689;50.954;7.116;2022-08-19T13:14:45;32.10;49.20
5334;DHT22;2689;50.954;7.116;2022-08-19T13:17:16;32.30;48.00
5334;DHT22;2689;50.954;7.116;2022-08-19T13:19:43;32.10;48.30
5334;DHT22;2689;50.954;7.116;2022-08-19T13:22:10;31.30;50.30
5334;DHT22;2689;50.954;7.116;2022-08-19T13:24:39;30.60;52.40
5334;DHT22;2689;50.954;7.116;2022-08-19T13:27:06;30.20;53.30
5334;DHT22;2689;50.954;7.116;2022-08-19T13:29:33;30.20;52.90
5334;DHT22;2689;50.954;7.116;2022-08-19T13:32:18;30.10;53.70
5334;DHT22;2689;50.954;7.116;2022-08-19T13:35:02;30.70;52.40
5334;DHT22;2689;50.954;7.116;2022-08-19T13:37:29;31.80;50.00
5334;DHT22;2689;50.954;7.116;2022-08-19T13:40:12;32.20;48.50
5334;DHT22;2689;50.954;7.116;2022-08-19T13:42:41;32.70;46.80
5334;DHT22;2689;50.954;7.116;2022-08-19T13:45:08;32.60;46.60
5334;DHT22;2689;50.954;7.116;2022-08-19T13:47:36;33.20;45.80
5334;DHT22;2689;50.954;7.116;2022-08-19T13:50:10;33.80;45.90
5334;DHT22;2689;50.954;7.116;2022-08-19T13:52:37;34.40;43.20
5334;DHT22;2689;50.954;7.116;2022-08-19T13:55:04;34.20;43.20
5334;DHT22;2689;50.954;7.116;2022-08-19T13:57:33;33.80;43.40
5334;DHT22;2689;50.954;7.116;2022-08-19T14:00:02;34.50;43.50
5334;DHT22;2689;50.954;7.116;2022-08-19T14:02:30;34.50;43.80
5334;DHT22;2689;50.954;7.116;2022-08-19T14:04:57;35.00;42.80
5334;DHT22;2689;50.954;7.116;2022-08-19T14:07:24;35.00;42.10
5334;DHT22;2689;50.954;7.116;2022-08-19T14:09:51;35.10;43.70
5334;DHT22;2689;50.954;7.116;2022-08-19T14:12:19;34.90;42.90
5334;DHT22;2689;50.954;7.116;2022-08-19T14:14:47;33.60;44.10
5334;DHT22;2689;50.954;7.116;2022-08-19T14:17:15;32.90;45.00
5334;DHT22;2689;50.954;7.116;2022-08-19T14:19:42;32.80;45.80
5334;DHT22;2689;50.954;7.116;2022-08-19T14:22:09;32.60;44.80
5334;DHT22;2689;50.954;7.116;2022-08-19T14:24:37;32.00;45.30
5334;DHT22;2689;50.954;7.116;2022-08-19T14:27:05;31.40;45.90
5334;DHT22;2689;50.954;7.116;2022-08-19T14:29:32;30.70;47.40
5334;DHT22;2689;50.954;7.116;2022-08-19T14:32:00;30.50;48.20
5334;DHT22;2689;50.954;7.116;2022-08-19T14:34:27;30.40;48.00
5334;DHT22;2689;50.954;7.116;2022-08-19T14:36:54;30.50;48.70
5334;DHT22;2689;50.954;7.116;2022-08-19T14:39:20;30.70;47.60
5334;DHT22;2689;50.954;7.116;2022-08-19T14:41:47;30.60;47.50
5334;DHT22;2689;50.954;7.116;2022-08-19T14:44:14;30.40;47.90
5334;DHT22;2689;50.954;7.116;2022-08-19T14:46:41;30.10;47.50
5334;DHT22;2689;50.954;7.116;2022-08-19T14:49:11;29.80;47.90
5334;DHT22;2689;50.954;7.116;2022-08-19T14:51:38;29.60;48.90
5334;DHT22;2689;50.954;7.116;2022-08-19T14:54:11;29.30;49.90
5334;DHT22;2689;50.954;7.116;2022-08-19T14:56:40;29.00;50.80
5334;DHT22;2689;50.954;7.116;2022-08-19T14:59:15;28.80;51.80
5334;DHT22;2689;50.954;7.116;2022-08-19T15:01:43;28.60;52.30
5334;DHT22;2689;50.954;7.116;2022-08-19T15:04:11;28.50;52.70
5334;DHT22;2689;50.954;7.116;2022-08-19T15:06:38;28.40;53.00
5334;DHT22;2689;50.954;7.116;2022-08-19T15:09:06;28.30;52.90
5334;DHT22;2689;50.954;7.116;2022-08-19T15:11:32;28.40;53.10
5334;DHT22;2689;50.954;7.116;2022-08-19T15:13:59;28.40;52.60
5334;DHT22;2689;50.954;7.116;2022-08-19T15:16:27;28.40;52.60
5334;DHT22;2689;50.954;7.116;2022-08-19T15:18:55;28.40;52.10
5334;DHT22;2689;50.954;7.116;2022-08-19T15:21:25;28.40;52.20
5334;DHT22;2689;50.954;7.116;2022-08-19T15:23:52;28.50;51.70
5334;DHT22;2689;50.954;7.116;2022-08-19T15:26:19;28.50;51.30
5334;DHT22;2689;50.954;7.116;2022-08-19T15:28:46;28.60;50.90
5334;DHT22;2689;50.954;7.116;2022-08-19T15:31:16;28.70;50.80
5334;DHT22;2689;50.954;7.116;2022-08-19T15:33:44;28.70;51.10
5334;DHT22;2689;50.954;7.116;2022-08-19T15:36:11;28.90;51.00
5334;DHT22;2689;50.954;7.116;2022-08-19T15:38:39;29.20;51.50
5334;DHT22;2689;50.954;7.116;2022-08-19T15:41:16;29.40;49.50
5334;DHT22;2689;50.954;7.116;2022-08-19T15:43:50;29.50;48.90
5334;DHT22;2689;50.954;7.116;2022-08-19T15:46:19;29.30;48.50
5334;DHT22;2689;50.954;7.116;2022-08-19T15:48:46;29.30;48.80
5334;DHT22;2689;50.954;7.116;2022-08-19T15:51:13;29.40;48.50
5334;DHT22;2689;50.954;7.116;2022-08-19T15:53:42;29.40;48.30
5334;DHT22;2689;50.954;7.116;2022-08-19T15:56:09;29.40;48.30
5334;DHT22;2689;50.954;7.116;2022-08-19T15:58:37;29.50;47.80
5334;DHT22;2689;50.954;7.116;2022-08-19T16:01:21;29.30;47.40
5334;DHT22;2689;50.954;7.116;2022-08-19T16:04:06;29.30;47.90
5334;DHT22;2689;50.954;7.116;2022-08-19T16:06:52;29.40;47.80
5334;DHT22;2689;50.954;7.116;2022-08-19T16:09:23;29.40;47.60
5334;DHT22;2689;50.954;7.116;2022-08-19T16:11:50;29.30;47.70